Airfield :
LOGIN :

Register | Disclaimer

   EN    FR    IT 

 










Legend :    VFR   Marginal VFR   IFR   Intensive IFR   Very Intensive IFR
Visi :
Ceiling :
>= 8 km
>= 3000ft
5 to 8 km
1000 to 3000 ft
1500m to 5 km
500 to 1000 ft
800 to 1500m
200 to 500 ft
< 800m
< 200 ft
Symbols :   Thunderstorms  Fog  Heavy snow  Heavy precipitations  Wind > 20 kt
SIGMETs :     Misc.  Thunderstorms  Icing  Turbulence  Mountain Waves  Volcanic Ashes







- Airport Elevation : 46 ft
- IATA code : SNN


EINN - Shannon

CURRENT METAR :
  • 210430Z 23021KT 3500 RADZ BKN004 OVC008 11/10 Q1005 NOSIG

EXPIRED METARs :
  • 210400Z 22012KT 3500 RADZ BKN003 OVC004 09/09 Q1005 NOSIG
  • 210330Z 14006KT 3500 RADZ BKN003 OVC005 08/08 Q1005 NOSIG
  • 210300Z 13009KT 2800 -DZ BKN002 OVC003 07/07 Q1006 NOSIG
  • 210230Z 13008KT 2800 -DZ BKN002 OVC004 07/07 Q1007 NOSIG
  • 210200Z 12009KT 3000 -DZ SCT002 OVC004 07/06 Q1007 NOSIG

TAF AMD TAF EINN
Valid from the 21 at 03:00 until the 22 at 00:00 UTC


210312Z 2103/2124 10010KT 6000 -RA FEW004 BKN012
TEMPO 2103/2112 2500 -RADZ BKN002
BECMG 2104/2106 24015KT
PROB30
TEMPO 2104/2109 1200 RADZ BR BKN002
TEMPO 2107/2118 26020G32KT
BECMG 2113/2116 9999 NSW BKN018
No reported NOTAMs for that airfield.
1 SIGMET reported for the Shannon FIR (EISN) :
 
Severe icing
EISN SIGMET 01 VALID 210140/210540 EINN
EISN SHANNON FIR SEV ICE FCST NE OF LINE N5257 W00530 - N5334 W01000 3000FT/FL140 MOV SE AT 15KT NC=



MET'MAP, your aeronautical weather chart ! - Copyright ORBIFLY December 2007 - Disclaimer

ORBIFLY MET'MAP TEAM :

Programming & Development : Alexandra Zaïnal
Concept & Development : Baudouin d'Aumeries
Co-Development & Prog : Marc-Olivier Méhu
Technical & hardware support : Manuel Goepfert

Contact : metmap@orbifly.com




SOURCES & CREDITS :

   NOAA